createdAt,value
2023-02-14T00:00:15.450Z,74.32
2023-02-14T00:02:52.494Z,74.39
2023-02-14T00:05:05.053Z,74.71
2023-02-14T00:07:17.148Z,74.80
2023-02-14T00:09:28.831Z,74.87
2023-02-14T00:11:41.172Z,74.78
2023-02-14T00:14:11.486Z,74.80
2023-02-14T00:16:23.317Z,74.80
2023-02-14T00:18:55.729Z,74.53
2023-02-14T00:21:07.203Z,74.68
2023-02-14T00:23:18.894Z,74.96
2023-02-14T00:25:30.782Z,74.76
2023-02-14T00:27:42.677Z,74.99
2023-02-14T00:29:56.668Z,74.89
2023-02-14T00:32:08.774Z,74.99
2023-02-14T00:34:21.426Z,75.18
2023-02-14T00:36:34.239Z,74.93
2023-02-14T00:38:46.336Z,75.33
2023-02-14T00:40:58.359Z,75.16
2023-02-14T00:43:10.222Z,75.03
2023-02-14T00:45:22.422Z,75.06
2023-02-14T00:47:34.322Z,75.16
2023-02-14T00:49:46.041Z,75.06
2023-02-14T00:51:57.893Z,75.08
2023-02-14T00:54:09.480Z,75.33
2023-02-14T00:56:21.780Z,75.24
2023-02-14T00:58:33.949Z,75.12
2023-02-14T01:00:45.994Z,75.33
2023-02-14T01:02:58.419Z,75.23
2023-02-14T01:05:10.682Z,75.25
2023-02-14T01:07:22.883Z,75.20
2023-02-14T01:09:34.467Z,75.43
2023-02-14T01:11:48.917Z,75.43
2023-02-14T01:14:01.131Z,75.58
2023-02-14T01:16:15.670Z,75.44
2023-02-14T01:18:27.564Z,75.71
2023-02-14T01:20:39.762Z,75.40
2023-02-14T01:22:51.859Z,75.29
2023-02-14T01:25:07.287Z,75.49
2023-02-14T01:27:19.029Z,75.64
2023-02-14T01:29:32.043Z,75.44
2023-02-14T01:31:45.232Z,75.72
2023-02-14T01:33:58.285Z,75.49
2023-02-14T01:36:25.145Z,75.47
2023-02-14T01:38:37.431Z,75.30
2023-02-14T01:40:49.446Z,75.61
2023-02-14T01:43:01.426Z,75.89
2023-02-14T01:45:26.699Z,75.69
2023-02-14T01:47:41.500Z,75.76
2023-02-14T01:49:59.554Z,75.82
2023-02-14T01:52:20.133Z,75.60
2023-02-14T01:54:35.596Z,75.57
2023-02-14T01:56:54.051Z,75.70
2023-02-14T01:59:10.550Z,75.80
2023-02-14T02:01:23.899Z,75.84
2023-02-14T02:03:50.816Z,75.79
2023-02-14T02:06:15.100Z,75.85
2023-02-14T02:08:27.512Z,75.83
2023-02-14T02:10:39.296Z,76.08
2023-02-14T02:12:53.746Z,76.25
2023-02-14T02:15:07.201Z,76.08
2023-02-14T02:17:41.802Z,76.16
2023-02-14T02:20:31.782Z,76.15
2023-02-14T02:23:25.149Z,76.64
2023-02-14T02:25:58.955Z,76.37
2023-02-14T02:28:48.635Z,76.79
2023-02-14T02:31:16.076Z,76.26
2023-02-14T02:33:39.515Z,76.77
2023-02-14T02:36:22.679Z,76.98
2023-02-14T02:39:00.785Z,77.00
2023-02-14T02:41:30.299Z,77.35
2023-02-14T02:43:56.315Z,76.98
2023-02-14T02:46:39.953Z,77.01
2023-02-14T02:49:01.571Z,77.10
2023-02-14T02:51:42.245Z,77.34
2023-02-14T02:54:04.783Z,77.22
2023-02-14T02:56:45.787Z,77.53
2023-02-14T02:59:04.980Z,77.59
2023-02-14T03:01:22.185Z,77.76
2023-02-14T03:03:56.249Z,77.95
2023-02-14T03:06:08.243Z,77.51
2023-02-14T03:08:20.441Z,77.91
2023-02-14T03:10:38.185Z,77.74
2023-02-14T03:13:05.935Z,77.55
2023-02-14T03:15:59.803Z,77.66
2023-02-14T03:18:39.669Z,77.77
2023-02-14T03:20:55.245Z,77.57
2023-02-14T03:23:22.444Z,77.93
2023-02-14T03:26:19.859Z,77.58
2023-02-14T03:28:46.384Z,77.94
2023-02-14T03:31:08.335Z,78.25
2023-02-14T03:33:32.314Z,78.07
2023-02-14T03:36:02.309Z,77.85
2023-02-14T03:38:36.625Z,78.04
2023-02-14T03:41:04.198Z,78.11
2023-02-14T03:43:31.048Z,78.14
2023-02-14T03:45:49.090Z,78.05
2023-02-14T03:48:06.693Z,78.22
2023-02-14T03:50:20.511Z,77.95
2023-02-14T03:52:34.367Z,78.25
2023-02-14T03:54:52.462Z,78.09
2023-02-14T03:57:25.186Z,78.11
2023-02-14T03:59:36.872Z,77.99
2023-02-14T04:02:08.014Z,78.03
2023-02-14T04:04:24.750Z,77.96
2023-02-14T04:06:36.512Z,77.94
2023-02-14T04:08:48.507Z,77.97
2023-02-14T04:11:03.074Z,78.16
2023-02-14T04:13:14.848Z,77.72
2023-02-14T04:15:26.847Z,78.04
2023-02-14T04:17:58.093Z,78.01
2023-02-14T04:20:10.605Z,77.79
2023-02-14T04:22:22.282Z,77.80
2023-02-14T04:24:33.971Z,77.97
2023-02-14T04:27:10.315Z,78.03
2023-02-14T04:29:23.354Z,77.88
2023-02-14T04:31:35.264Z,77.87
2023-02-14T04:33:48.230Z,77.93
2023-02-14T04:36:00.793Z,77.99
2023-02-14T04:38:12.870Z,77.87
2023-02-14T04:40:24.965Z,77.93
2023-02-14T04:42:37.077Z,78.16
2023-02-14T04:44:48.852Z,77.87
2023-02-14T04:47:01.157Z,77.91
2023-02-14T04:49:13.051Z,78.00
2023-02-14T04:51:27.496Z,77.80
2023-02-14T04:53:40.607Z,77.69
2023-02-14T04:55:52.717Z,77.92
2023-02-14T04:58:04.720Z,78.12
2023-02-14T05:00:16.812Z,77.81
2023-02-14T05:02:28.540Z,77.63
2023-02-14T05:04:40.618Z,77.83
2023-02-14T05:06:52.600Z,77.85
2023-02-14T05:09:04.580Z,77.81
2023-02-14T05:11:16.985Z,77.86
2023-02-14T05:13:28.792Z,77.91
2023-02-14T05:15:40.583Z,77.81
2023-02-14T05:17:52.252Z,77.59
2023-02-14T05:20:06.001Z,77.64
2023-02-14T05:22:18.617Z,77.56
2023-02-14T05:24:30.488Z,77.53
2023-02-14T05:26:42.383Z,77.73
2023-02-14T05:28:54.182Z,77.81
2023-02-14T05:31:06.633Z,77.74
2023-02-14T05:33:18.673Z,77.64
2023-02-14T05:35:30.606Z,77.73
2023-02-14T05:37:42.456Z,77.58
2023-02-14T05:39:54.653Z,77.53
2023-02-14T05:42:06.855Z,77.31
2023-02-14T05:44:19.054Z,77.61
2023-02-14T05:46:30.844Z,77.32
2023-02-14T05:48:42.535Z,77.61
2023-02-14T05:50:54.431Z,77.46
2023-02-14T05:53:06.423Z,77.39
2023-02-14T05:55:18.210Z,77.40
2023-02-14T05:57:29.918Z,77.36
2023-02-14T05:59:41.690Z,77.79
2023-02-14T06:01:53.654Z,77.73
2023-02-14T06:04:05.477Z,77.44
2023-02-14T06:06:17.265Z,77.59
2023-02-14T06:08:29.059Z,77.56
2023-02-14T06:10:40.743Z,77.25
2023-02-14T06:12:53.851Z,77.25
2023-02-14T06:15:06.481Z,77.23
2023-02-14T06:17:18.476Z,77.39
2023-02-14T06:19:30.234Z,77.24
2023-02-14T06:21:41.949Z,77.14
2023-02-14T06:23:54.154Z,77.12
2023-02-14T06:26:06.245Z,77.39
2023-02-14T06:28:18.034Z,77.16
2023-02-14T06:30:29.933Z,77.34
2023-02-14T06:32:42.037Z,77.22
2023-02-14T06:34:53.709Z,77.32
2023-02-14T06:37:05.336Z,77.47
2023-02-14T06:39:17.801Z,77.23
2023-02-14T06:41:30.003Z,77.37
2023-02-14T06:43:41.688Z,77.17
2023-02-14T06:45:54.318Z,77.29
2023-02-14T06:48:06.295Z,77.27
2023-02-14T06:50:18.292Z,77.22
2023-02-14T06:52:30.091Z,77.28
2023-02-14T06:54:42.055Z,76.90
2023-02-14T06:56:53.570Z,77.21
2023-02-14T06:59:05.876Z,77.24
2023-02-14T07:01:17.663Z,77.09
2023-02-14T07:03:29.231Z,76.91
2023-02-14T07:05:41.532Z,76.98
2023-02-14T07:07:53.530Z,76.81
2023-02-14T07:10:06.458Z,76.92
2023-02-14T07:12:18.335Z,76.71
2023-02-14T07:14:30.231Z,76.59
2023-02-14T07:16:41.922Z,76.42
2023-02-14T07:18:53.811Z,76.59
2023-02-14T07:21:06.625Z,76.52
2023-02-14T07:23:19.127Z,76.72
2023-02-14T07:25:30.816Z,76.72
2023-02-14T07:27:43.636Z,76.45
2023-02-14T07:29:55.565Z,76.43
2023-02-14T07:32:07.696Z,76.37
2023-02-14T07:34:19.432Z,76.11
2023-02-14T07:36:31.203Z,76.39
2023-02-14T07:38:42.783Z,76.28
2023-02-14T07:40:54.470Z,75.99
2023-02-14T07:43:08.111Z,76.20
2023-02-14T07:45:22.233Z,75.85
2023-02-14T07:47:34.630Z,75.66
2023-02-14T07:49:46.236Z,75.74
2023-02-14T07:51:58.130Z,75.50
2023-02-14T07:54:09.828Z,75.46
2023-02-14T07:56:34.407Z,75.68
2023-02-14T07:58:46.914Z,75.26
2023-02-14T08:00:59.076Z,74.97
2023-02-14T08:03:11.415Z,75.33
2023-02-14T08:05:23.772Z,75.21
2023-02-14T08:07:36.225Z,74.86
2023-02-14T08:09:48.025Z,74.62
2023-02-14T08:12:18.643Z,74.59
2023-02-14T08:14:30.432Z,74.64
2023-02-14T08:16:42.531Z,76.94
2023-02-14T08:18:56.482Z,77.44
2023-02-14T08:21:10.922Z,77.25
2023-02-14T08:23:24.563Z,75.92
2023-02-14T08:25:36.375Z,73.02
2023-02-14T08:27:49.157Z,71.84
2023-02-14T08:30:01.079Z,71.36
2023-02-14T08:32:13.243Z,70.96
2023-02-14T08:34:25.141Z,70.80
2023-02-14T08:36:37.032Z,70.25
2023-02-14T08:38:49.231Z,70.62
2023-02-14T08:41:04.408Z,70.87
2023-02-14T08:43:18.240Z,71.00
2023-02-14T08:45:30.436Z,70.93
2023-02-14T08:47:42.343Z,70.51
2023-02-14T08:49:54.021Z,70.32
2023-02-14T08:52:05.806Z,70.40
2023-02-14T08:54:17.703Z,70.69
2023-02-14T08:56:29.387Z,70.72
2023-02-14T08:58:41.590Z,70.78
2023-02-14T09:00:53.219Z,70.53
2023-02-14T09:03:05.477Z,69.28
2023-02-14T09:05:18.025Z,69.40
2023-02-14T09:07:29.919Z,69.23
2023-02-14T09:09:41.426Z,69.66
2023-02-14T09:11:53.146Z,69.57
2023-02-14T09:14:04.943Z,69.53
2023-02-14T09:16:18.013Z,68.98
2023-02-14T09:18:30.254Z,67.34
2023-02-14T09:20:44.785Z,67.27
2023-02-14T09:22:57.317Z,66.49
2023-02-14T09:25:09.530Z,66.25
2023-02-14T09:27:21.517Z,65.90
2023-02-14T09:29:33.954Z,65.82
2023-02-14T09:31:45.675Z,65.76
2023-02-14T09:33:58.522Z,65.09
2023-02-14T09:36:28.845Z,64.92
2023-02-14T09:38:41.351Z,65.20
2023-02-14T09:40:53.754Z,65.66
2023-02-14T09:43:39.345Z,65.92
2023-02-14T09:45:56.794Z,65.17
2023-02-14T09:48:26.105Z,65.79
2023-02-14T09:50:45.836Z,66.07
2023-02-14T09:53:06.742Z,65.65
2023-02-14T09:55:19.351Z,65.60
2023-02-14T09:57:37.182Z,65.44
2023-02-14T10:00:00.362Z,65.79
2023-02-14T10:02:30.313Z,65.03
2023-02-14T10:05:06.634Z,64.93
2023-02-14T10:07:34.283Z,64.19
2023-02-14T10:10:10.646Z,64.73
2023-02-14T10:12:27.787Z,65.38
2023-02-14T10:14:41.236Z,64.48
2023-02-14T10:17:08.237Z,64.38
2023-02-14T10:19:34.977Z,64.50
2023-02-14T10:22:05.541Z,64.34
2023-02-14T10:24:26.946Z,64.09
2023-02-14T10:26:41.480Z,64.57
2023-02-14T10:28:54.496Z,64.25
2023-02-14T10:31:26.348Z,64.45
2023-02-14T10:33:41.148Z,64.61
2023-02-14T10:36:00.922Z,64.01
2023-02-14T10:38:50.367Z,63.00
2023-02-14T10:41:21.930Z,62.80
2023-02-14T10:43:46.211Z,63.54
2023-02-14T10:46:18.009Z,63.18
2023-02-14T10:48:36.510Z,61.99
2023-02-14T10:51:04.913Z,61.34
2023-02-14T10:53:48.628Z,61.79
2023-02-14T10:56:06.185Z,62.04
2023-02-14T10:58:21.262Z,62.32
2023-02-14T11:00:38.031Z,62.18
2023-02-14T11:02:52.746Z,62.36
2023-02-14T11:05:06.114Z,62.74
2023-02-14T11:07:21.439Z,63.26
2023-02-14T11:09:33.141Z,62.91
2023-02-14T11:11:50.806Z,62.72
2023-02-14T11:14:22.765Z,63.09
2023-02-14T11:16:37.579Z,62.87
2023-02-14T11:19:16.353Z,62.16
2023-02-14T11:21:38.070Z,62.33
2023-02-14T11:23:51.615Z,61.82
2023-02-14T11:26:09.237Z,60.94
2023-02-14T11:28:22.143Z,60.84
2023-02-14T11:30:38.756Z,60.88
2023-02-14T11:32:55.667Z,60.50
2023-02-14T11:35:18.755Z,60.42
2023-02-14T11:37:44.231Z,60.10
2023-02-14T11:39:59.607Z,59.48
2023-02-14T11:42:12.934Z,60.15
2023-02-14T11:44:27.994Z,60.25
2023-02-14T11:46:52.362Z,60.75
2023-02-14T11:49:23.422Z,60.80
2023-02-14T11:51:40.787Z,60.88
2023-02-14T11:53:56.213Z,61.28
2023-02-14T11:56:08.024Z,61.74
2023-02-14T11:58:40.099Z,60.99
2023-02-14T12:00:54.471Z,61.56
2023-02-14T12:03:07.128Z,61.26
2023-02-14T12:05:33.977Z,61.19
2023-02-14T12:07:47.450Z,61.05
2023-02-14T12:10:29.626Z,59.98
2023-02-14T12:13:09.679Z,60.42
2023-02-14T12:15:29.396Z,60.20
2023-02-14T12:17:44.607Z,60.25
2023-02-14T12:20:09.008Z,60.69
2023-02-14T12:22:37.678Z,60.90
2023-02-14T12:24:59.298Z,61.15
2023-02-14T12:27:34.758Z,61.38
2023-02-14T12:29:54.520Z,61.86
2023-02-14T12:32:33.748Z,62.23
2023-02-14T12:34:45.945Z,62.57
2023-02-14T12:37:09.825Z,62.20
2023-02-14T12:39:43.323Z,61.89
2023-02-14T12:42:16.817Z,64.54
2023-02-14T12:44:54.718Z,62.65
2023-02-14T12:47:21.254Z,61.41
2023-02-14T12:50:02.741Z,60.75
2023-02-14T12:52:33.680Z,60.99
2023-02-14T12:54:58.039Z,61.61
2023-02-14T12:57:27.376Z,61.65
2023-02-14T12:59:57.895Z,61.52
2023-02-14T13:02:47.813Z,61.94
2023-02-14T13:05:08.888Z,62.29
2023-02-14T13:07:49.352Z,61.93
2023-02-14T13:10:19.471Z,61.79
2023-02-14T13:12:39.663Z,61.73
2023-02-14T13:15:03.221Z,61.45
2023-02-14T13:17:25.356Z,61.83
2023-02-14T13:19:50.577Z,61.47
2023-02-14T13:22:04.978Z,61.51
2023-02-14T13:24:21.955Z,61.35
2023-02-14T13:26:40.575Z,61.46
2023-02-14T13:29:01.473Z,61.48
2023-02-14T13:31:15.255Z,61.41
2023-02-14T13:33:38.168Z,61.50
2023-02-14T13:35:52.242Z,61.63
2023-02-14T13:38:08.606Z,62.01
2023-02-14T13:40:26.551Z,61.92
2023-02-14T13:42:50.724Z,62.25
2023-02-14T13:45:02.399Z,62.35
2023-02-14T13:47:20.434Z,62.64
2023-02-14T13:49:34.807Z,62.65
2023-02-14T13:51:54.362Z,62.80
2023-02-14T13:54:40.537Z,62.84
2023-02-14T13:56:52.651Z,63.20
2023-02-14T13:59:06.414Z,63.42
2023-02-14T14:01:31.415Z,63.35
2023-02-14T14:03:43.397Z,63.57
2023-02-14T14:06:05.925Z,63.59
2023-02-14T14:08:20.999Z,63.84
2023-02-14T14:10:45.019Z,63.84
2023-02-14T14:12:56.867Z,63.65
2023-02-14T14:15:15.139Z,63.71
2023-02-14T14:17:27.927Z,64.09
2023-02-14T14:19:41.649Z,64.51
2023-02-14T14:22:05.755Z,64.11
2023-02-14T14:24:17.209Z,64.25
2023-02-14T14:26:35.757Z,64.01
2023-02-14T14:28:47.854Z,64.30
2023-02-14T14:31:00.187Z,64.13
2023-02-14T14:33:16.247Z,64.28
2023-02-14T14:35:27.938Z,64.38
2023-02-14T14:37:54.672Z,64.12
2023-02-14T14:40:09.683Z,64.25
2023-02-14T14:42:24.706Z,63.71
2023-02-14T14:44:38.031Z,63.99
2023-02-14T14:46:49.775Z,63.86
2023-02-14T14:49:02.533Z,63.94
2023-02-14T14:51:36.138Z,63.89
2023-02-14T14:53:52.844Z,63.98
2023-02-14T14:56:04.740Z,64.08
2023-02-14T14:58:39.217Z,64.32
2023-02-14T15:00:51.923Z,64.27
2023-02-14T15:03:09.810Z,64.37
2023-02-14T15:05:32.249Z,64.65
2023-02-14T15:07:44.344Z,64.58
2023-02-14T15:09:56.294Z,64.51
2023-02-14T15:12:28.915Z,64.73
2023-02-14T15:14:46.302Z,64.73
2023-02-14T15:17:04.521Z,64.78
2023-02-14T15:19:39.103Z,64.69
2023-02-14T15:21:51.000Z,64.87
2023-02-14T15:24:04.013Z,64.96
2023-02-14T15:26:19.033Z,65.27
2023-02-14T15:28:35.440Z,65.23
2023-02-14T15:30:56.590Z,65.20
2023-02-14T15:33:11.172Z,65.26
2023-02-14T15:35:27.584Z,65.14
2023-02-14T15:37:39.946Z,65.20
2023-02-14T15:39:56.143Z,65.08
2023-02-14T15:42:26.051Z,65.09
2023-02-14T15:44:37.844Z,65.23
2023-02-14T15:46:59.875Z,65.30
2023-02-14T15:49:19.765Z,65.40
2023-02-14T15:51:36.451Z,65.61
2023-02-14T15:54:03.519Z,65.90
2023-02-14T15:56:21.965Z,65.88
2023-02-14T15:58:36.401Z,66.01
2023-02-14T16:00:49.419Z,65.98
2023-02-14T16:03:12.471Z,66.05
2023-02-14T16:05:27.537Z,66.13
2023-02-14T16:07:39.348Z,66.34
2023-02-14T16:10:23.589Z,66.28
2023-02-14T16:12:36.810Z,66.46
2023-02-14T16:15:10.910Z,66.71
2023-02-14T16:17:34.792Z,66.67
2023-02-14T16:19:46.677Z,66.67
2023-02-14T16:21:58.670Z,66.78
2023-02-14T16:24:11.642Z,66.81
2023-02-14T16:26:23.688Z,66.97
2023-02-14T16:28:38.878Z,67.10
2023-02-14T16:30:57.418Z,67.21
2023-02-14T16:33:16.086Z,67.46
2023-02-14T16:35:27.849Z,67.59
2023-02-14T16:37:40.037Z,67.59
2023-02-14T16:39:54.650Z,67.60
2023-02-14T16:42:06.592Z,67.53
2023-02-14T16:44:20.127Z,67.63
2023-02-14T16:46:35.272Z,67.70
2023-02-14T16:48:51.904Z,67.96
2023-02-14T16:51:03.993Z,68.00
2023-02-14T16:53:28.585Z,68.01
2023-02-14T16:55:41.291Z,68.21
2023-02-14T16:57:53.499Z,68.18
2023-02-14T17:00:06.977Z,68.25
2023-02-14T17:02:19.321Z,68.43
2023-02-14T17:04:31.731Z,68.38
2023-02-14T17:06:49.606Z,68.65
2023-02-14T17:09:07.231Z,68.48
2023-02-14T17:11:20.180Z,68.65
2023-02-14T17:13:36.512Z,68.60
2023-02-14T17:15:49.676Z,68.64
2023-02-14T17:18:07.695Z,68.65
2023-02-14T17:20:22.126Z,68.86
2023-02-14T17:22:35.703Z,68.77
2023-02-14T17:24:47.641Z,69.00
2023-02-14T17:26:59.794Z,68.91
2023-02-14T17:29:12.562Z,69.23
2023-02-14T17:31:28.839Z,68.94
2023-02-14T17:33:40.942Z,69.33
2023-02-14T17:35:53.348Z,69.45
2023-02-14T17:38:05.446Z,69.27
2023-02-14T17:40:17.333Z,69.81
2023-02-14T17:42:31.788Z,69.51
2023-02-14T17:44:43.476Z,69.62
2023-02-14T17:46:55.674Z,69.69
2023-02-14T17:49:10.746Z,69.61
2023-02-14T17:51:24.742Z,69.96
2023-02-14T17:53:41.789Z,69.95
2023-02-14T17:55:58.299Z,69.99
2023-02-14T17:58:12.600Z,70.10
2023-02-14T18:00:25.664Z,70.43
2023-02-14T18:02:37.387Z,70.63
2023-02-14T18:04:50.166Z,70.71
2023-02-14T18:07:02.145Z,70.66
2023-02-14T18:09:14.265Z,70.72
2023-02-14T18:11:28.118Z,70.57
2023-02-14T18:13:40.196Z,70.86
2023-02-14T18:15:54.645Z,70.69
2023-02-14T18:18:11.535Z,70.86
2023-02-14T18:20:23.758Z,70.77
2023-02-14T18:22:37.218Z,71.10
2023-02-14T18:24:50.102Z,70.76
2023-02-14T18:27:06.296Z,70.97
2023-02-14T18:29:19.620Z,71.12
2023-02-14T18:31:37.510Z,70.87
2023-02-14T18:33:50.902Z,71.29
2023-02-14T18:36:12.180Z,71.43
2023-02-14T18:38:24.420Z,71.93
2023-02-14T18:40:37.995Z,71.95
2023-02-14T18:42:49.811Z,71.99
2023-02-14T18:45:02.220Z,72.24
2023-02-14T18:47:20.826Z,72.15
2023-02-14T18:49:33.177Z,72.13
2023-02-14T18:51:45.985Z,72.60
2023-02-14T18:54:01.428Z,72.32
2023-02-14T18:56:18.102Z,72.39
2023-02-14T18:58:29.645Z,72.41
2023-02-14T19:00:41.509Z,72.46
2023-02-14T19:02:53.943Z,72.63
2023-02-14T19:05:08.089Z,72.69
2023-02-14T19:07:19.573Z,72.70
2023-02-14T19:09:39.040Z,72.74
2023-02-14T19:11:50.935Z,72.90
2023-02-14T19:14:05.369Z,72.99
2023-02-14T19:16:20.866Z,73.16
2023-02-14T19:18:32.860Z,73.42
2023-02-14T19:20:44.652Z,73.64
2023-02-14T19:22:56.867Z,73.66
2023-02-14T19:25:09.100Z,73.89
2023-02-14T19:27:24.899Z,73.71
2023-02-14T19:29:38.364Z,74.11
2023-02-14T19:31:54.855Z,74.15
2023-02-14T19:34:14.715Z,74.32
2023-02-14T19:36:26.946Z,74.43
2023-02-14T19:38:40.813Z,74.39
2023-02-14T19:40:52.879Z,74.54
2023-02-14T19:43:05.896Z,74.42
2023-02-14T19:45:18.303Z,74.65
2023-02-14T19:47:45.851Z,75.03
2023-02-14T19:50:00.522Z,75.38
2023-02-14T19:52:25.647Z,75.84
2023-02-14T19:54:39.295Z,75.99
2023-02-14T19:56:53.375Z,76.14
2023-02-14T19:59:09.620Z,76.49
2023-02-14T20:01:36.226Z,76.50
2023-02-14T20:03:49.555Z,76.41
2023-02-14T20:06:02.113Z,76.65
2023-02-14T20:08:14.160Z,76.55
2023-02-14T20:10:26.055Z,76.63
2023-02-14T20:12:38.701Z,76.75
2023-02-14T20:14:54.749Z,76.61
2023-02-14T20:17:07.786Z,76.63
2023-02-14T20:19:22.776Z,76.68
2023-02-14T20:21:35.240Z,76.74
2023-02-14T20:23:47.028Z,76.72
2023-02-14T20:25:59.023Z,76.94
2023-02-14T20:28:11.438Z,77.07
2023-02-14T20:30:23.685Z,77.32
2023-02-14T20:32:36.747Z,77.65
2023-02-14T20:34:51.613Z,77.62
2023-02-14T20:37:05.595Z,77.53
2023-02-14T20:39:18.062Z,77.38
2023-02-14T20:41:35.988Z,77.60
2023-02-14T20:43:48.230Z,77.73
2023-02-14T20:46:02.001Z,77.61
2023-02-14T20:48:14.020Z,77.58
2023-02-14T20:50:26.015Z,77.33
2023-02-14T20:52:37.914Z,77.41
2023-02-14T20:54:49.709Z,77.53
2023-02-14T20:57:02.001Z,77.80
2023-02-14T20:59:14.301Z,77.88
2023-02-14T21:01:28.756Z,77.89
2023-02-14T21:03:47.340Z,77.69
2023-02-14T21:06:00.021Z,77.83
2023-02-14T21:08:12.114Z,77.77
2023-02-14T21:10:23.902Z,78.16
2023-02-14T21:12:35.902Z,78.14
2023-02-14T21:14:47.890Z,77.50
2023-02-14T21:17:00.343Z,77.62
2023-02-14T21:19:12.704Z,78.15
2023-02-14T21:21:33.791Z,77.77
2023-02-14T21:23:51.538Z,78.01
2023-02-14T21:26:03.820Z,78.17
2023-02-14T21:28:15.601Z,78.08
2023-02-14T21:30:31.115Z,77.52
2023-02-14T21:32:43.103Z,78.26
2023-02-14T21:34:55.556Z,78.08
2023-02-14T21:37:07.815Z,78.33
2023-02-14T21:39:25.558Z,78.32
2023-02-14T21:41:37.526Z,78.56
2023-02-14T21:43:55.131Z,78.11
2023-02-14T21:46:09.360Z,77.55
2023-02-14T21:48:40.148Z,78.34
2023-02-14T21:50:52.036Z,78.29
2023-02-14T21:53:07.619Z,78.31
2023-02-14T21:55:19.825Z,78.77
2023-02-14T21:57:31.911Z,78.57
2023-02-14T21:59:43.802Z,78.54
2023-02-14T22:01:55.935Z,78.71
2023-02-14T22:04:10.869Z,78.61
2023-02-14T22:06:22.880Z,78.70
2023-02-14T22:08:34.854Z,78.20
2023-02-14T22:10:47.262Z,78.72
2023-02-14T22:12:59.148Z,78.59
2023-02-14T22:15:10.941Z,79.04
2023-02-14T22:17:23.141Z,78.16
2023-02-14T22:19:36.883Z,78.61
2023-02-14T22:21:49.278Z,78.63
2023-02-14T22:24:01.790Z,79.23
2023-02-14T22:26:21.718Z,78.75
2023-02-14T22:28:33.480Z,78.37
2023-02-14T22:30:45.242Z,78.68
2023-02-14T22:32:57.040Z,78.72
2023-02-14T22:35:08.821Z,78.67
2023-02-14T22:37:21.020Z,78.51
2023-02-14T22:39:33.025Z,78.81
2023-02-14T22:41:45.220Z,78.84
2023-02-14T22:43:57.729Z,78.87
2023-02-14T22:46:12.653Z,78.67
2023-02-14T22:48:24.372Z,78.61
2023-02-14T22:50:36.366Z,78.70
2023-02-14T22:52:48.463Z,79.01
2023-02-14T22:55:00.361Z,78.61
2023-02-14T22:57:11.968Z,78.23
2023-02-14T22:59:26.446Z,78.40
2023-02-14T23:01:38.321Z,78.65
2023-02-14T23:03:54.795Z,79.34
2023-02-14T23:06:07.085Z,79.13
2023-02-14T23:08:18.982Z,79.03
2023-02-14T23:10:31.281Z,79.15
2023-02-14T23:13:02.118Z,79.15
2023-02-14T23:15:32.696Z,79.53
2023-02-14T23:18:03.585Z,79.51
2023-02-14T23:20:34.217Z,79.29
2023-02-14T23:22:46.523Z,78.95
2023-02-14T23:25:00.989Z,79.52
2023-02-14T23:27:14.193Z,79.48
2023-02-14T23:29:27.008Z,79.24
2023-02-14T23:31:39.247Z,79.67
2023-02-14T23:33:52.291Z,79.22
2023-02-14T23:36:04.841Z,79.29
2023-02-14T23:38:16.939Z,79.55
2023-02-14T23:40:28.621Z,79.47
2023-02-14T23:42:40.314Z,79.75
2023-02-14T23:44:52.203Z,79.44
2023-02-14T23:47:06.963Z,79.51
2023-02-14T23:49:19.265Z,79.42
2023-02-14T23:51:30.906Z,79.41
2023-02-14T23:53:43.259Z,79.83
2023-02-14T23:56:01.166Z,79.67
2023-02-14T23:58:13.285Z,79.77
